Surface Preassure
0:00 UTC
12:00 UTC (Click for larger versions)
Andrewsfield Outlook

Current time:


  05:19:12am (GMT)      05:19:12am (UTC)


Headline: Sunny intervals and showers, some heavy.

Today: A good deal of cloud around this morning with showers developing in places towards midday, though for most it will stay dry. Becoming brighter into the afternoon but with showers developing more widely, and some of these could be heavy. Maximum Temperature 12C.

Tonight: Showers should gradually die away this evening with most places dry overnight with clear periods. Turning chilly with a ground frost possible in some rural areas. Minimum Temperature 1C.

Friday: After a chilly start, Friday should be a fine and dry day for most with some sunshine. Just an outside chance of an isolated light shower through the afternoon. Maximum Temperature 12C.

Outlook for Saturday to Monday: Saturday dry for most with some sunshine. Sunday breezier with outbreaks of patchy rain likely later, this lingering into Monday. Likely to be drier later but still breezy.

Forecast

Weather warnings

Nearby METAR/TAF

Stansted (EGSS)


Current conditions: IFR

METAR: EGSS 270450Z AUTO 30002KT 3700 BR NCD M01/M01 Q1019

TAF: TAF EGSS 270500Z 2706/2812 31004KT 3800 BR FEW030 BECMG 2706/2709 9999 NSW PROB30 TEMPO 2715/2720 8000 SHRA BKN010 PROB30 TEMPO 2722/2801 7000 SHRA BKN009

Southend (EGMC)


Current conditions: VFR

METAR: EGMC 270450Z 31005KT CAVOK 00/M02 Q1019

TAF: TAF EGMC 270501Z 2706/2715 31005KT 9999 FEW040

RAF Wattisham (EGUW)


Current conditions: VFR

METAR: EGUW 270450Z AUTO 29004KT 9999 NCD M01/M02 Q1019

TAF: